Latest Coastal Weather Observations for Cape Nelson

IDV60701

Issued at 5:31 pm EST Tuesday 4 August 2015 (issued every 10 minutes, with the page automatically refreshed every 10 minutes)

About coastal observations | Map of coastal stations | Coastal observations for VIC | Marine services | Other Formats
Station Details ID: 090184 Name: CAPE NELSON LIGHTHOUSE Lat: -38.43 Lon: 141.54 Height: 45.4 m
Data from the previous 72 hours. | See also: Recent months at Cape Nelson
Date/Time
EST
Temp

°C
Wind Pressure Rain
since 9am
mm
Weather Cloud Vis
km
Sea
Height
m
Swell
Dir
 
Speed
knots
Gust
knots
hPa Trend Height
m
Period
s
Dir
04/05:30pm 11.6 WNW 23 34 1015.9 - 1.0 - - - - - - -
04/05:00pm 11.6 WNW 24 36 1016.2 - 1.0 - - - - - - -
04/04:30pm 11.6 W 24 34 1016.5 - 1.0 - - - - - - -
04/04:00pm 11.0 W 26 37 1016.9 - 1.0 - - - - - - -
04/03:51pm 10.5 WNW 21 33 1017.1 - 1.0 - - - - - - -
04/03:30pm 10.9 W 21 29 1017.4 - 1.0 - - - - - - -
04/03:00pm 9.8 WNW 21 31 1017.7 - 1.0 Recent precip. - - - - - -
04/02:47pm 10.3 WNW 18 30 1017.8 - 1.0 - - - - - - -
04/02:30pm 10.2 W 16 24 1018.0 - 1.0 - - - - - - -
04/02:24pm 10.1 W 16 26 1018.1 - 1.0 - - - - - - -
04/02:00pm 10.7 WNW 18 25 1018.4 - 0.4 - - - - - - -
04/01:30pm 10.2 WNW 18 25 1019.1 - 0.4 - - - - - - -
04/01:00pm 10.8 WNW 18 26 1019.7 - 0.2 - - - - - - -
04/12:30pm 11.2 NW 15 22 1020.4 - 0.2 - - - - - - -
04/12:14pm 10.6 NW 16 26 1020.9 - 0.2 - - - - - - -
04/12:00pm 11.4 NW 16 21 1021.1 - 0.2 - - - - - - -
04/11:30am 10.4 NW 16 21 1021.6 - 0.2 - - - - - - -
04/11:00am 10.0 NW 14 21 1021.8 - 0.2 - - - - - - -
04/10:30am 9.9 NW 15 20 1022.0 - 0.2 - - - - - - -
04/10:00am 8.9 NW 13 21 1022.2 - 0.2 - - - - - - -
04/09:30am 9.3 NW 12 18 1022.3 - 0.0 - - - - - - -
04/09:00am 9.7 W 13 20 1022.3 - 0.8 - - - - - - -
04/08:30am 8.9 WNW 13 20 1022.5 - 0.8 - - - - - - -
04/08:04am 9.5 W 15 27 1022.5 - 0.8 - - - - - - -
04/08:00am 9.3 W 15 19 1022.5 - 0.8 - - - - - - -
04/07:30am 9.5 W 15 22 1022.5 - 0.8 - - - - - - -
04/07:00am 8.8 W 19 26 1022.5 - 0.8 - - - - - - -
04/06:42am 9.4 W 15 27 1022.5 - 0.8 - - - - - - -
04/06:30am 9.0 W 14 20 1022.7 - 0.8 - - - - - - -
04/06:00am 8.3 W 11 17 1022.6 - 0.8 Recent precip. - - - - - -
04/05:30am 8.3 W 16 26 1022.6 - 0.6 - - - - - - -
04/05:28am 8.3 W 15 26 1022.6 - 0.6 - - - - - - -
04/05:00am 8.6 W 15 20 1022.5 - 0.4 - - - - - - -
04/04:30am 7.9 W 15 28 1022.8 - 0.2 - - - - - - -
04/04:29am 7.9 W 15 28 1022.8 - 0.2 - - - - - - -
04/04:00am 9.0 W 14 26 1022.7 - 0.2 - - - - - - -
04/03:30am 8.3 W 15 21 1022.9 - 0.2 - - - - - - -
04/03:00am 8.4 W 12 19 1023.3 - 0.2 - - - - - - -
04/02:30am 8.3 NNW 11 20 1023.2 - 0.2 - - - - - - -
04/02:00am 8.9 W 12 16 1023.4 - 0.2 - - - - - - -
04/01:30am 8.2 N 5 8 1023.4 - 0.2 - - - - - - -
04/01:00am 8.2 W 9 19 1023.7 - 0.2 - - - - - - -
04/12:30am 8.9 WNW 10 16 1023.7 - 0.2 - - - - - - -
04/12:00am 8.6 W 12 17 1023.9 - 0.2 - - - - - - -
 
Date/Time
EST
Temp

°C
Wind Pressure Rain
since 9am
mm
Weather Cloud Vis
km
Sea
Height
m
Swell
Dir
 
Speed
knots
Gust
knots
hPa Trend Height
m
Period
s
Dir
03/11:30pm 8.4 NW 7 11 1024.0 - 0.2 - - - - - - -
03/11:00pm 7.9 SSE 5 11 1024.1 - 0.2 - - - - - - -
03/10:30pm 7.8 SE 7 13 1024.2 - 0.2 - - - - - - -
03/10:00pm 7.8 ESE 9 16 1024.4 - 0.2 - - - - - - -
03/09:30pm 8.5 SE 8 13 1024.4 - 0.2 - - - - - - -
03/09:00pm 8.9 S 9 16 1024.5 - 0.2 - - - - - - -
03/08:30pm 8.6 WNW 7 13 1024.5 - 0.2 - - - - - - -
03/08:00pm 8.7 NNW 8 12 1024.4 - 0.2 - - - - - - -
03/07:30pm 8.3 S 10 16 1024.3 - 0.2 - - - - - - -
03/07:00pm 8.3 S 12 19 1023.8 - 0.2 - - - - - - -
03/06:30pm 8.2 ESE 7 12 1023.5 - 0.2 - - - - - - -
03/06:00pm 8.1 SSE 7 14 1023.4 - 0.2 - - - - - - -
03/05:30pm 8.2 ESE 8 16 1023.2 - 0.2 - - - - - - -
03/05:00pm 8.7 S 10 16 1022.9 - 0.2 - - - - - - -
03/04:30pm 9.4 ENE 8 13 1022.7 - 0.2 - - - - - - -
03/04:00pm 9.1 SSE 10 18 1022.5 - 0.2 - - - - - - -
03/03:30pm 9.9 SSE 9 17 1022.2 - 0.2 - - - - - - -
03/03:00pm 9.4 ESE 8 17 1021.9 - 0.2 - - - - - - -
03/02:30pm 9.4 ENE 8 13 1021.8 - 0.2 - - - - - - -
03/02:00pm 9.6 SSE 12 23 1021.8 - 0.2 - - - - - - -
03/01:33pm 8.8 S 15 27 1021.8 - 0.2 - - - - - - -
03/01:30pm 9.1 S 12 23 1021.7 - 0.2 - - - - - - -
03/01:00pm 9.7 SSE 11 21 1021.5 - 0.2 - - - - - - -
03/12:30pm 9.3 S 14 22 1021.4 - 0.2 - - - - - - -
03/12:00pm 8.6 SSE 12 22 1021.5 - 0.2 - - - - - - -
03/11:32am 9.2 SSE 13 28 1021.4 - 0.2 - - - - - - -
03/11:30am 9.2 SE 13 24 1021.1 - 0.2 - - - - - - -
03/11:00am 8.9 SSE 12 22 1021.0 - 0.2 - - - - - - -
03/10:34am 7.8 SE 15 31 1020.6 - 0.2 - - - - - - -
03/10:33am 8.2 SE 15 30 1020.4 - 0.2 - - - - - - -
03/10:30am 8.3 SSE 17 29 1020.5 - 0.2 - - - - - - -
03/10:21am 8.9 E 13 29 1020.5 - 0.2 - - - - - - -
03/10:00am 8.9 E 11 23 1019.7 - 0.2 - - - - - - -
03/09:30am 7.4 ENE 11 19 1019.4 - 0.2 - - - - - - -
03/09:03am 7.6 E 12 34 1019.2 - 0.0 - - - - - - -
03/09:00am 7.8 ENE 12 23 1019.1 - 5.6 Recent precip. - - - - - -
03/08:30am 8.8 S 14 32 1018.0 - 5.4 - - - - - - -
03/08:07am 8.8 ESE 15 33 1017.8 - 5.4 - - - - - - -
03/08:00am 9.1 ESE 14 26 1017.3 - 5.4 - - - - - - -
03/07:32am 8.5 E 14 27 1016.7 - 5.4 - - - - - - -
03/07:30am 8.6 ESE 14 25 1016.7 - 5.4 - - - - - - -
03/07:13am 8.8 ENE 15 27 1016.4 - 5.4 - - - - - - -
03/07:00am 9.0 NE 13 23 1016.0 - 5.4 - - - - - - -
03/06:37am 8.2 NE 15 28 1015.5 - 5.4 - - - - - - -
03/06:30am 7.7 NE 15 29 1015.4 - 5.4 - - - - - - -
03/06:00am 6.8 NNE 15 28 1015.3 - 5.4 Rain - - - - - -
03/05:39am 8.0 NNW 14 25 1014.8 - 4.8 - - - - - - -
03/05:30am 7.5 NE 14 29 1014.5 - 4.8 - - - - - - -
03/05:00am 7.8 NNE 15 26 1014.0 - 4.8 - - - - - - -
03/04:42am 8.5 WNW 19 34 1013.4 - 4.6 - - - - - - -
03/04:30am 8.6 WNW 21 36 1013.6 - 4.4 - - - - - - -
03/04:10am 8.4 WNW 23 40 1013.2 - 4.2 - - - - - - -
03/04:05am 9.4 W 27 41 1013.0 - 4.2 - - - - - - -
03/04:00am 9.0 W 25 41 1013.3 - 4.2 - - - - - - -
03/03:57am 8.6 W 25 41 1013.3 - 4.2 - - - - - - -
03/03:46am 8.5 W 24 44 1013.0 - 4.2 - - - - - - -
03/03:43am 8.6 W 27 44 1012.9 - 4.2 - - - - - - -
03/03:39am 8.5 WNW 26 44 1013.1 - 4.0 - - - - - - -
03/03:38am 8.5 WNW 25 44 1013.1 - 4.0 - - - - - - -
03/03:34am 9.0 NW 19 41 1012.7 - 4.0 - - - - - - -
03/03:30am 9.1 NW 18 30 1012.5 - 4.0 - - - - - - -
03/03:27am 9.2 NW 18 31 1012.6 - 4.0 - - - - - - -
03/03:26am 9.3 NW 19 32 1012.5 - 4.0 - - - - - - -
03/03:00am 8.6 WNW 20 35 1012.8 - 4.0 Rain - - - - - -
03/02:53am 8.3 WNW 25 43 1012.7 - 4.0 - - - - - - -
03/02:51am 8.1 W 29 43 1012.6 - 4.0 - - - - - - -
03/02:36am 8.7 WNW 22 40 1012.6 - 3.6 - - - - - - -
03/02:30am 8.9 WNW 18 37 1012.1 - 3.4 - - - - - - -
03/02:29am 9.7 WNW 18 37 1011.8 - 3.2 - - - - - - -
03/02:27am 10.1 WNW 21 43 1012.1 - 3.2 - - - - - - -
03/02:24am 10.0 W 26 43 1012.5 - 3.2 - - - - - - -
03/02:22am 10.4 W 28 43 1012.1 - 3.2 - - - - - - -
03/02:00am 10.2 W 29 42 1012.3 - 3.2 - - - - - - -
03/01:39am 9.9 W 29 43 1011.7 - 3.2 - - - - - - -
03/01:38am 10.5 W 29 43 1011.8 - 3.2 - - - - - - -
03/01:30am 10.6 W 30 43 1011.9 - 3.2 - - - - - - -
03/01:00am 10.1 W 33 48 1011.9 - 3.2 - - - - - - -
03/12:53am 9.6 W 28 48 1011.8 - 3.2 - - - - - - -
03/12:52am 9.7 W 27 48 1011.9 - 3.2 - - - - - - -
03/12:45am 9.4 WNW 22 37 1011.7 - 3.2 - - - - - - -
03/12:41am 10.0 WNW 22 36 1011.2 - 3.2 - - - - - - -
03/12:40am 10.1 WNW 23 36 1011.2 - 3.2 - - - - - - -
03/12:30am 9.8 W 29 39 1011.7 - 3.2 - - - - - - -
03/12:00am 10.4 W 29 42 1011.5 - 2.8 - - - - - - -
 
Date/Time
EST
Temp

°C
Wind Pressure Rain
since 9am
mm
Weather Cloud Vis
km
Sea
Height
m
Swell
Dir
 
Speed
knots
Gust
knots
hPa Trend Height
m
Period
s
Dir
02/11:37pm 10.2 W 31 51 1011.1 - 2.8 - - - - - - -
02/11:30pm 10.3 W 28 40 1011.3 - 2.8 - - - - - - -
02/11:00pm 10.7 W 30 44 1011.1 - 2.8 - - - - - - -
02/10:30pm 10.6 W 27 42 1011.4 - 2.8 - - - - - - -
02/10:00pm 10.1 W 28 41 1011.2 - 2.8 - - - - - - -
02/09:30pm 10.3 W 26 42 1011.1 - 2.6 - - - - - - -
02/09:00pm 10.2 W 24 40 1011.1 - 2.6 Recent precip. - - - - - -
02/08:47pm 10.3 W 25 43 1011.0 - 2.6 - - - - - - -
02/08:30pm 10.3 W 20 32 1010.8 - 2.4 - - - - - - -
02/08:00pm 9.2 W 26 45 1010.9 - 2.2 - - - - - - -
02/07:30pm 9.7 W 27 44 1010.6 - 2.0 - - - - - - -
02/07:00pm 10.5 W 25 42 1010.6 - 1.8 - - - - - - -
02/06:30pm 10.7 W 24 37 1010.3 - 1.8 - - - - - - -
02/06:00pm 10.6 W 23 40 1010.2 - 1.8 - - - - - - -
02/05:30pm 10.5 W 21 33 1010.2 - 1.8 - - - - - - -
02/05:16pm 10.7 W 25 40 1010.1 - 1.8 - - - - - - -
02/05:14pm 10.7 W 28 40 1010.1 - 1.8 - - - - - - -
02/05:12pm 10.8 W 30 41 1010.1 - 1.8 - - - - - - -
02/05:07pm 10.7 W 29 41 1010.0 - 1.8 - - - - - - -
02/05:00pm 10.9 W 23 37 1010.0 - 1.8 - - - - - - -
02/04:30pm 10.7 W 22 37 1009.9 - 1.8 - - - - - - -
02/04:00pm 10.7 W 25 41 1009.7 - 1.8 - - - - - - -
02/03:30pm 11.0 W 25 38 1009.7 - 1.8 - - - - - - -
02/03:00pm 11.1 W 26 38 1009.5 - 1.8 Recent precip. - - - - - -
02/02:55pm 10.8 W 22 38 1009.4 - 1.8 - - - - - - -
02/02:39pm 10.9 W 19 29 1009.4 - 1.8 - - - - - - -
02/02:32pm 10.7 W 27 42 1009.4 - 1.8 - - - - - - -
02/02:30pm 10.7 W 30 46 1009.4 - 1.8 - - - - - - -
02/02:03pm 10.7 W 27 37 1009.2 - 1.6 - - - - - - -
02/02:00pm 10.2 W 28 37 1009.0 - 1.6 - - - - - - -
02/01:30pm 10.1 W 25 35 1008.8 - 1.0 - - - - - - -
02/01:00pm 10.8 W 22 35 1009.3 - 1.0 - - - - - - -
02/12:30pm 10.9 W 25 41 1009.5 - 1.0 - - - - - - -
02/12:00pm 10.9 W 27 40 1009.3 - 0.6 Rain - - - - - -
02/11:30am 11.5 WNW 27 40 1009.6 - 0.2 - - - - - - -
02/11:06am 12.0 WNW 26 36 1009.8 - 0.0 - - - - - - -
02/11:00am 12.1 WNW 26 35 1009.9 - 0.0 - - - - - - -
02/10:34am 11.9 WNW 27 39 1009.8 - 0.0 - - - - - - -
02/10:30am 12.0 WNW 28 37 1009.8 - 0.0 - - - - - - -
02/10:00am 11.4 WNW 25 38 1010.0 - 0.0 - - - - - - -
02/09:41am 10.6 NW 19 29 1010.3 - 0.0 - - - - - - -
02/09:30am 9.6 NW 19 27 1010.6 - 0.0 - - - - - - -
02/09:00am 9.6 NW 19 27 1010.5 - 3.0 - - - - - - -
02/08:53am 10.0 NW 23 33 1010.5 - 3.0 - - - - - - -
02/08:30am 9.7 WNW 25 34 1010.4 - 3.0 - - - - - - -
02/08:20am 9.1 NW 20 42 1010.4 - 3.0 - - - - - - -
02/08:17am 8.9 NW 18 30 1010.6 - 3.0 - - - - - - -
02/08:00am 8.4 NW 19 25 1010.6 - 3.0 - - - - - - -
02/07:30am 7.9 NW 18 25 1010.9 - 2.6 - - - - - - -
02/07:00am 7.9 NW 17 25 1010.7 - 2.6 - - - - - - -
02/06:43am 8.1 NW 15 27 1010.7 - 2.6 - - - - - - -
02/06:30am 7.9 NW 18 24 1010.8 - 2.6 - - - - - - -
02/06:05am 7.8 NW 15 25 1011.2 - 2.4 - - - - - - -
02/06:00am 7.7 NW 16 23 1011.1 - 2.4 - - - - - - -
02/05:41am 8.4 NW 16 26 1011.3 - 2.4 - - - - - - -
02/05:30am 8.1 NW 18 24 1011.5 - 2.4 - - - - - - -
02/05:00am 7.9 NW 17 24 1011.5 - 2.4 - - - - - - -
02/04:30am 7.6 NW 17 23 1011.9 - 2.2 - - - - - - -
02/04:00am 7.5 NW 14 21 1012.2 - 2.0 - - - - - - -
02/03:30am 8.0 NW 14 20 1012.5 - 1.8 - - - - - - -
02/03:00am 8.6 WNW 17 28 1012.8 - 1.8 Rain - - - - - -
02/02:57am 8.5 NW 15 27 1012.9 - 1.8 - - - - - - -
02/02:30am 8.0 NW 14 20 1013.0 - 1.6 - - - - - - -
02/02:00am 7.6 NW 14 21 1013.5 - 1.6 - - - - - - -
02/01:30am 7.5 NW 14 19 1013.6 - 1.4 - - - - - - -
02/01:00am 8.0 NW 12 18 1014.0 - 1.2 - - - - - - -
02/12:30am 8.0 NW 13 21 1014.2 - 0.8 - - - - - - -
02/12:00am 8.3 NW 15 22 1014.4 - 0.4 - - - - - - -
 
Date/Time
EST
Temp

°C
Wind Pressure Rain
since 9am
mm
Weather Cloud Vis
km
Sea
Height
m
Swell
Dir
 
Speed
knots
Gust
knots
hPa Trend Height
m
Period
s
Dir
01/11:30pm 8.5 NW 13 17 1014.4 - 0.4 - - - - - - -
01/11:00pm 8.4 NW 14 21 1014.8 - 0.4 - - - - - - -
01/10:30pm 8.7 NW 13 18 1015.1 - 0.4 - - - - - - -
01/10:00pm 8.3 NW 13 20 1015.1 - 0.4 - - - - - - -
01/09:30pm 7.9 NW 10 14 1015.2 - 0.4 - - - - - - -
01/09:00pm 7.7 NNW 8 12 1015.2 - 0.4 Recent precip. - - - - - -
01/08:30pm 8.1 NNW 7 10 1015.3 - 0.4 - - - - - - -
01/08:00pm 8.3 NNW 8 12 1015.1 - 0.2 - - - - - - -
01/07:30pm 9.2 NW 13 19 1015.2 - 0.2 - - - - - - -
01/07:00pm 9.5 WNW 12 17 1015.0 - 0.2 - - - - - - -
01/06:30pm 9.1 WNW 13 17 1015.0 - 0.2 - - - - - - -
01/06:00pm 10.0 W 11 16 1015.0 - 0.2 - - - - - - -

Other Formats:

Comma delimited format used in spreadsheet applications
http://www.bom.gov.au/fwo/IDV60701/IDV60701.94826.axf

JavaScript Object Notation format (JSON) in row-major order
http://www.bom.gov.au/fwo/IDV60701/IDV60701.94826.json